Terminal Aerodrome Forecast
Issued by NWS

Home | Current Version | Previous Version | Graphics & Text | Print | Product List | Glossary On
Versions: 1 2 3 4 5 6 7 8 9 10 11 12 13 14 15 16 17 18 19 20 21 22 23
000
FTUS43 KTOP 052300
TAFMHK
TAF
KMHK 052338Z 0600/0624 17013G20KT P6SM SCT050 OVC250
      TEMPO 0600/0601 VRB25G35KT 3SM TSRA SCT020 BKN040CB
     FM060100 15010KT P6SM VCSH SCT050 BKN120
     FM060400 15013KT P6SM -SHRA VCTS OVC050CB
      TEMPO 0606/0610 3SM SHRA BR BKN025
     FM061400 17015G22KT P6SM VCSH BKN025
     FM061800 17020G32KT P6SM SCT025 BKN050=

USA.gov is the U.S. government's official web portal to all federal, state and local government web resources and services.